Colt — WDC6330 — position and weather

sailwx.info

Track history (hours):
 
Tides and Currents Weather Stations Pressure Air Temp Water Temp Dewpoint Dewpoint Depression Visibility Wind Speed Wind Dir Waves Ship Positions

Colt

Owner: ACL Transportation Services LLC, Jeffersonville, IN. More information available from US FCC via Universal Licensing System and Coast Guard Vessel Documentation Center.

Last reported at 2018-Jul-23 14:21 UTC. Time now 2018-Jul-23 15:22 UTC.
Position N 29°46' W 095°05'.

Length 20 m; draft 2.9 m.

Type: Towing. MMSI: 367054790.

Date/timePositionNaut miles runAvg speedWind from/ knotsBaromVisibWave heightAir tempDewpointWater temp
2018-Jul-23 14:21N 29°46' W 095°05'1 1.8
2018-Jul-23 14:00N 29°45' W 095°06'0 0.1
2018-Jul-23 13:23N 29°46' W 095°06'0 0.0
2018-Jul-23 13:00N 29°46' W 095°06'1 2.0
2018-Jul-23 12:29N 29°45' W 095°06'0 0.2
2018-Jul-23 12:00N 29°45' W 095°06'2 3.1
2018-Jul-23 11:27N 29°46' W 095°05'0 0.0
2018-Jul-23 11:00N 29°46' W 095°05'0 0.0
2018-Jul-23 10:21N 29°46' W 095°05'0 0.1
2018-Jul-23 10:00N 29°46' W 095°05'0 0.1
2018-Jul-23 09:08N 29°46' W 095°06'0 0.0
2018-Jul-23 08:59N 29°46' W 095°06'0 0.0
2018-Jul-23 08:26N 29°46' W 095°06'0 0.0
2018-Jul-23 07:53N 29°46' W 095°06'0 0.0
2018-Jul-23 07:29N 29°46' W 095°06'0 0.0
2018-Jul-23 06:59N 29°46' W 095°06'0 0.0
2018-Jul-23 06:29N 29°46' W 095°06'0 0.0
2018-Jul-23 05:59N 29°46' W 095°06'0 0.0
2018-Jul-23 05:29N 29°46' W 095°06'1 1.1
2018-Jul-23 04:53N 29°46' W 095°05'2 4.0
2018-Jul-23 04:30N 29°46' W 095°07'1 1.3
2018-Jul-23 03:54N 29°45' W 095°06'4 0.3
2018-Jul-22 16:46N 29°45' W 095°10'2 5.2
2018-Jul-22 16:27N 29°44' W 095°08'3 5.4
2018-Jul-22 15:57N 29°45' W 095°06'1 1.2
2018-Jul-22 15:28N 29°46' W 095°05'1 0.4
2018-Jul-22 13:14N 29°46' W 095°06'0 0.0
2018-Jul-22 12:51N 29°46' W 095°06'0 1.0
2018-Jul-22 12:24N 29°46' W 095°07'0 0.3
2018-Jul-22 11:07N 29°46' W 095°06'0 0.0
2018-Jul-22 10:55N 29°46' W 095°06'0 0.0
2018-Jul-22 09:07N 29°46' W 095°06'0 0.0
2018-Jul-22 08:19N 29°46' W 095°06'0 0.0
2018-Jul-22 07:58N 29°46' W 095°06'0 0.0
2018-Jul-22 07:28N 29°46' W 095°06'0 0.0
2018-Jul-22 06:52N 29°46' W 095°06'0 0.0
2018-Jul-22 06:28N 29°46' W 095°06'0 0.0
2018-Jul-22 05:58N 29°46' W 095°06'0 0.0
2018-Jul-22 05:25N 29°46' W 095°06'0 0.0
2018-Jul-22 04:49N 29°46' W 095°06'0 0.0
2018-Jul-22 04:22N 29°46' W 095°06'0 0.2
2018-Jul-22 03:54N 29°46' W 095°06'0 0.0
2018-Jul-22 03:27N 29°46' W 095°06'2 0.2
2018-Jul-21 19:30N 29°44' W 095°08'0 0.0
2018-Jul-21 18:51N 29°44' W 095°08'0 0.0
2018-Jul-21 18:27N 29°44' W 095°08'0 0.0
2018-Jul-21 17:48N 29°44' W 095°08'0 0.0
2018-Jul-21 17:27N 29°44' W 095°08'0 0.0
2018-Jul-21 16:48N 29°44' W 095°08'0 0.0
2018-Jul-21 10:56N 29°44' W 095°08'3 5.2
2018-Jul-21 10:26N 29°46' W 095°05'0 0.0
2018-Jul-21 10:00N 29°46' W 095°05'1 1.3
2018-Jul-21 09:21N 29°46' W 095°06'0 0.0
2018-Jul-21 08:54N 29°46' W 095°06'0 0.0
2018-Jul-21 08:12N 29°46' W 095°06'0 0.0
2018-Jul-21 07:57N 29°46' W 095°06'0 0.0
2018-Jul-21 07:30N 29°46' W 095°06'0 0.0
2018-Jul-21 07:00N 29°46' W 095°06'0 0.0
2018-Jul-21 06:30N 29°46' W 095°06'0 0.2
2018-Jul-21 05:58N 29°46' W 095°06'1 0.6
2018-Jul-21 04:31N 29°45' W 095°06'0 4.5
2018-Jul-21 04:30N 29°45' W 095°06'1 0.8
2018-Jul-21 03:27N 29°46' W 095°06'3 0.8
2018-Jul-20 22:53N 29°45' W 095°10'5 0.9
2018-Jul-20 17:41N 29°46' W 095°05'2 4.1
2018-Jul-20 17:12N 29°44' W 095°03'2 4.4
2018-Jul-20 16:43N 29°43' W 095°01'1 4.4
2018-Jul-20 16:29N 29°42' W 095°01'2 4.0
2018-Jul-20 16:00N 29°41' W 094°59'2 4.3
2018-Jul-20 15:30N 29°39' W 094°58'2 4.5
2018-Jul-20 15:00N 29°37' W 094°57'2 4.1
2018-Jul-20 14:30N 29°37' W 094°60'1 3.0
2018-Jul-20 14:00N 29°37' W 095°01'0 0.1
2018-Jul-20 13:30N 29°37' W 095°01'0 0.0
2018-Jul-20 13:00N 29°37' W 095°01'0 0.0
2018-Jul-20 12:30N 29°37' W 095°01'0 0.0
2018-Jul-20 12:00N 29°37' W 095°01'0 0.0
2018-Jul-20 11:27N 29°37' W 095°01'0 0.0
2018-Jul-20 10:59N 29°37' W 095°01'0 0.0
2018-Jul-20 10:29N 29°37' W 095°01'0 0.0
2018-Jul-20 09:59N 29°37' W 095°01'0 0.0
2018-Jul-20 09:29N 29°37' W 095°01'0 0.0
2018-Jul-20 08:59N 29°37' W 095°01'0 0.0
2018-Jul-20 08:29N 29°37' W 095°01'0 0.0
2018-Jul-20 07:59N 29°37' W 095°01'0 0.0
2018-Jul-20 07:29N 29°37' W 095°01'0 0.0
2018-Jul-20 06:59N 29°37' W 095°01'0 0.0
2018-Jul-20 06:29N 29°37' W 095°01'0 0.0
2018-Jul-20 05:59N 29°37' W 095°01'0 0.0
2018-Jul-20 05:29N 29°37' W 095°01'0 0.0
2018-Jul-20 04:59N 29°37' W 095°01'0 0.0
2018-Jul-20 04:29N 29°37' W 095°01'0 0.0
2018-Jul-20 03:59N 29°37' W 095°01'0 0.0
2018-Jul-20 03:29N 29°37' W 095°01'0 0.0
2018-Jul-20 02:59N 29°37' W 095°01'0 0.0
2018-Jul-20 02:29N 29°37' W 095°01'0 0.0
2018-Jul-20 01:59N 29°37' W 095°01'0 0.0
2018-Jul-20 01:29N 29°37' W 095°01'0 0.0
2018-Jul-20 00:59N 29°37' W 095°01'0 0.0
2018-Jul-20 00:29N 29°37' W 095°01'0 0.0
2018-Jul-19 23:59N 29°37' W 095°01'1 1.4
2018-Jul-19 23:30N 29°37' W 095°01'2 3.9
2018-Jul-19 23:00N 29°37' W 094°58'2 3.7
2018-Jul-19 22:30N 29°39' W 094°58'10 0.9
2018-Jul-19 11:08N 29°46' W 095°06'1 4.3
2018-Jul-19 11:00N 29°46' W 095°05'0 0.6
2018-Jul-19 10:28N 29°46' W 095°05'0 0.0
2018-Jul-19 09:37N 29°46' W 095°05'0 0.0
2018-Jul-19 09:28N 29°46' W 095°05'0 0.0
2018-Jul-19 08:58N 29°46' W 095°05'0 0.0
2018-Jul-19 08:19N 29°46' W 095°05'0 0.0
2018-Jul-19 07:52N 29°46' W 095°05'0 0.0
2018-Jul-19 07:19N 29°46' W 095°05'0 0.0
2018-Jul-19 06:55N 29°46' W 095°05'0 0.0
2018-Jul-19 06:28N 29°46' W 095°05'0 0.0
2018-Jul-19 05:58N 29°46' W 095°05'0 0.0
2018-Jul-19 05:28N 29°46' W 095°05'0 0.0
2018-Jul-19 04:58N 29°46' W 095°05'0 0.0
2018-Jul-19 04:22N 29°46' W 095°05'0 0.0
2018-Jul-19 03:58N 29°46' W 095°05'0 0.0
2018-Jul-19 03:19N 29°46' W 095°05'1 1.0
2018-Jul-19 02:46N 29°46' W 095°06'1 1.6
2018-Jul-19 02:23N 29°45' W 095°06'0 0.1
2018-Jul-19 01:52N 29°46' W 095°06'3 0.3
2018-Jul-18 14:07N 29°44' W 095°09'3 1.1
2018-Jul-18 11:14N 29°46' W 095°06'0 0.1
2018-Jul-18 10:30N 29°46' W 095°06'2 3.4
2018-Jul-18 09:59N 29°45' W 095°04'2 4.0
2018-Jul-18 09:30N 29°44' W 095°02'2 3.5
2018-Jul-18 09:00N 29°43' W 095°01'2 3.9
2018-Jul-18 08:30N 29°42' W 094°59'2 4.2
2018-Jul-18 08:00N 29°40' W 094°58'2 4.7
2018-Jul-18 07:30N 29°37' W 094°57'2 4.4
2018-Jul-18 07:00N 29°37' W 094°60'1 2.6
2018-Jul-18 06:29N 29°37' W 095°01'0 0.0
2018-Jul-18 05:59N 29°37' W 095°01'0 0.0
2018-Jul-18 05:29N 29°37' W 095°01'0 0.0
2018-Jul-18 04:59N 29°37' W 095°01'0 0.1
2018-Jul-18 04:28N 29°37' W 095°01'0 0.0
2018-Jul-18 03:58N 29°37' W 095°01'0 0.0
2018-Jul-18 03:28N 29°37' W 095°01'0 0.0
2018-Jul-18 02:55N 29°37' W 095°01'0 0.0
2018-Jul-18 02:28N 29°37' W 095°01'0 0.0
2018-Jul-18 01:58N 29°37' W 095°01'0 0.0
2018-Jul-18 01:28N 29°37' W 095°01'0 0.0
2018-Jul-18 00:58N 29°37' W 095°01'0 0.0
2018-Jul-18 00:28N 29°37' W 095°01'0 0.0
2018-Jul-17 23:58N 29°37' W 095°01'0 0.0
2018-Jul-17 23:28N 29°37' W 095°01'0 0.0
2018-Jul-17 22:58N 29°37' W 095°01'0 0.0
2018-Jul-17 22:28N 29°37' W 095°01'0 0.0
2018-Jul-17 21:55N 29°37' W 095°01'0 0.0
2018-Jul-17 21:28N 29°37' W 095°01'0 0.0
2018-Jul-17 20:58N 29°37' W 095°01'0 0.0
2018-Jul-17 20:28N 29°37' W 095°01'0 0.0
2018-Jul-17 19:58N 29°37' W 095°01'0 0.0
2018-Jul-17 19:25N 29°37' W 095°01'0 0.0
2018-Jul-17 18:58N 29°37' W 095°01'0 0.0
2018-Jul-17 18:28N 29°37' W 095°01'0 0.0
2018-Jul-17 17:58N 29°37' W 095°01'0 0.0
2018-Jul-17 17:28N 29°37' W 095°01'0 0.0
2018-Jul-17 16:58N 29°37' W 095°01'0 0.0
2018-Jul-17 16:28N 29°37' W 095°01'0 0.0
2018-Jul-17 15:58N 29°37' W 095°01'0 0.0
2018-Jul-17 15:28N 29°37' W 095°01'0 0.0
2018-Jul-17 14:58N 29°37' W 095°01'0 0.1
2018-Jul-17 14:28N 29°37' W 095°01'0 0.3
2018-Jul-17 13:59N 29°37' W 095°01'0 0.4
2018-Jul-17 13:29N 29°37' W 095°01'0 0.0
2018-Jul-17 12:59N 29°37' W 095°01'0 0.0
2018-Jul-17 12:29N 29°37' W 095°01'2 3.9
2018-Jul-17 12:00N 29°37' W 094°59'2 4.4
2018-Jul-17 11:30N 29°39' W 094°58'4 7.6
2018-Jul-17 11:00N 29°42' W 095°00'3 6.9
2018-Jul-17 10:30N 29°44' W 095°03'3 3.0
2018-Jul-17 09:40N 29°46' W 095°06'0 0.0
2018-Jul-17 08:34N 29°46' W 095°06'0 0.0
2018-Jul-17 08:28N 29°46' W 095°06'0 0.0
2018-Jul-17 07:58N 29°46' W 095°06'0 0.0
2018-Jul-17 07:16N 29°46' W 095°06'0 0.0
2018-Jul-17 06:58N 29°46' W 095°06'0 0.0
2018-Jul-17 06:28N 29°46' W 095°06'0 0.8
2018-Jul-17 06:00N 29°46' W 095°06'0 0.7
2018-Jul-17 05:30N 29°46' W 095°07'1 2.2
2018-Jul-17 04:58N 29°46' W 095°06'0 0.2
2018-Jul-17 04:21N 29°46' W 095°05'2 4.7
2018-Jul-17 04:00N 29°45' W 095°04'2 4.7
2018-Jul-17 03:29N 29°44' W 095°01'1 0.0
2018-Jul-16 06:45N 29°44' W 095°03'1 4.5
2018-Jul-16 06:27N 29°45' W 095°04'2 0.8
2018-Jul-16 03:30N 29°46' W 095°06'1 0.2
2018-Jul-16 00:28N 29°46' W 095°05'3 6.2
2018-Jul-16 00:00N 29°44' W 095°03'3 0.2
2018-Jul-15 09:51N 29°45' W 095°06'2 1.4
2018-Jul-15 08:20N 29°44' W 095°03'2 5.2
2018-Jul-15 07:53N 29°43' W 095°01'2 4.7
2018-Jul-15 07:30N 29°42' W 094°60'2 3.7
2018-Jul-15 07:00N 29°40' W 094°59'3 5.6
2018-Jul-15 06:30N 29°38' W 094°58'2 4.9
2018-Jul-15 06:00N 29°37' W 095°00'1 2.1
2018-Jul-15 05:30N 29°37' W 095°01'0 0.0
2018-Jul-15 05:00N 29°37' W 095°01'0 0.0
2018-Jul-15 04:30N 29°37' W 095°01'0 0.0
2018-Jul-15 04:00N 29°37' W 095°01'0 0.0
2018-Jul-15 03:30N 29°37' W 095°01'0 0.0
2018-Jul-15 03:00N 29°37' W 095°01'0 0.0
2018-Jul-15 02:30N 29°37' W 095°01'0 0.0
2018-Jul-15 01:45N 29°37' W 095°01'0 0.0
2018-Jul-15 01:30N 29°37' W 095°01'0 0.0
2018-Jul-15 01:00N 29°37' W 095°01'0 0.0
2018-Jul-15 00:30N 29°37' W 095°01'0 0.0
2018-Jul-15 00:00N 29°37' W 095°01'0 0.0
2018-Jul-14 23:30N 29°37' W 095°01'0 0.0
2018-Jul-14 23:00N 29°37' W 095°01'0 0.0
2018-Jul-14 22:28N 29°37' W 095°01'0 0.0
2018-Jul-14 21:58N 29°37' W 095°01'0 0.0
2018-Jul-14 21:25N 29°37' W 095°01'0 0.0
2018-Jul-14 20:46N 29°37' W 095°01'0 0.0
2018-Jul-14 20:28N 29°37' W 095°01'0 0.0
2018-Jul-14 19:58N 29°37' W 095°01'0 0.0
2018-Jul-14 19:28N 29°37' W 095°01'0 0.0
2018-Jul-14 18:55N 29°37' W 095°01'0 0.0
2018-Jul-14 18:28N 29°37' W 095°01'0 0.0
2018-Jul-14 17:58N 29°37' W 095°01'0 0.0
2018-Jul-14 17:28N 29°37' W 095°01'0 0.0
2018-Jul-14 16:58N 29°37' W 095°01'1 2.6
2018-Jul-14 16:30N 29°37' W 095°00'3 4.3
2018-Jul-14 15:52N 29°39' W 094°58'3 6.6
2018-Jul-14 15:28N 29°41' W 094°59'  
Track history (hours):
 
Tides and Currents Weather Stations Pressure Air Temp Water Temp Dewpoint Dewpoint Depression Visibility Wind Speed Wind Dir Waves Ship Positions

Colt

Owner: ACL Transportation Services LLC, Jeffersonville, IN. More information available from US FCC via Universal Licensing System and Coast Guard Vessel Documentation Center.

Last reported at 2018-Jul-23 14:21 UTC. Time now 2018-Jul-23 15:22 UTC.
Position N 29°46' W 095°05'.

Length 20 m; draft 2.9 m.

Type: Towing. MMSI: 367054790.

Date/timePositionNaut miles runAvg speedWind from/ knotsBaromVisibWave heightAir tempDewpointWater temp
2018-Jul-23 14:21N 29°46' W 095°05'1 1.8
2018-Jul-23 14:00N 29°45' W 095°06'0 0.1
2018-Jul-23 13:23N 29°46' W 095°06'0 0.0
2018-Jul-23 13:00N 29°46' W 095°06'1 2.0
2018-Jul-23 12:29N 29°45' W 095°06'0 0.2
2018-Jul-23 12:00N 29°45' W 095°06'2 3.1
2018-Jul-23 11:27N 29°46' W 095°05'0 0.0
2018-Jul-23 11:00N 29°46' W 095°05'0 0.0
2018-Jul-23 10:21N 29°46' W 095°05'0 0.1
2018-Jul-23 10:00N 29°46' W 095°05'0 0.1
2018-Jul-23 09:08N 29°46' W 095°06'0 0.0
2018-Jul-23 08:59N 29°46' W 095°06'0 0.0
2018-Jul-23 08:26N 29°46' W 095°06'0 0.0
2018-Jul-23 07:53N 29°46' W 095°06'0 0.0
2018-Jul-23 07:29N 29°46' W 095°06'0 0.0
2018-Jul-23 06:59N 29°46' W 095°06'0 0.0
2018-Jul-23 06:29N 29°46' W 095°06'0 0.0
2018-Jul-23 05:59N 29°46' W 095°06'0 0.0
2018-Jul-23 05:29N 29°46' W 095°06'1 1.1
2018-Jul-23 04:53N 29°46' W 095°05'2 4.0
2018-Jul-23 04:30N 29°46' W 095°07'1 1.3
2018-Jul-23 03:54N 29°45' W 095°06'4 0.3
2018-Jul-22 16:46N 29°45' W 095°10'2 5.2
2018-Jul-22 16:27N 29°44' W 095°08'3 5.4
2018-Jul-22 15:57N 29°45' W 095°06'1 1.2
2018-Jul-22 15:28N 29°46' W 095°05'1 0.4
2018-Jul-22 13:14N 29°46' W 095°06'0 0.0
2018-Jul-22 12:51N 29°46' W 095°06'0 1.0
2018-Jul-22 12:24N 29°46' W 095°07'0 0.3
2018-Jul-22 11:07N 29°46' W 095°06'0 0.0
2018-Jul-22 10:55N 29°46' W 095°06'0 0.0
2018-Jul-22 09:07N 29°46' W 095°06'0 0.0
2018-Jul-22 08:19N 29°46' W 095°06'0 0.0
2018-Jul-22 07:58N 29°46' W 095°06'0 0.0
2018-Jul-22 07:28N 29°46' W 095°06'0 0.0
2018-Jul-22 06:52N 29°46' W 095°06'0 0.0
2018-Jul-22 06:28N 29°46' W 095°06'0 0.0
2018-Jul-22 05:58N 29°46' W 095°06'0 0.0
2018-Jul-22 05:25N 29°46' W 095°06'0 0.0
2018-Jul-22 04:49N 29°46' W 095°06'0 0.0
2018-Jul-22 04:22N 29°46' W 095°06'0 0.2
2018-Jul-22 03:54N 29°46' W 095°06'0 0.0
2018-Jul-22 03:27N 29°46' W 095°06'2 0.2
2018-Jul-21 19:30N 29°44' W 095°08'0 0.0
2018-Jul-21 18:51N 29°44' W 095°08'0 0.0
2018-Jul-21 18:27N 29°44' W 095°08'0 0.0
2018-Jul-21 17:48N 29°44' W 095°08'0 0.0
2018-Jul-21 17:27N 29°44' W 095°08'0 0.0
2018-Jul-21 16:48N 29°44' W 095°08'0 0.0
2018-Jul-21 10:56N 29°44' W 095°08'3 5.2
2018-Jul-21 10:26N 29°46' W 095°05'0 0.0
2018-Jul-21 10:00N 29°46' W 095°05'1 1.3
2018-Jul-21 09:21N 29°46' W 095°06'0 0.0
2018-Jul-21 08:54N 29°46' W 095°06'0 0.0
2018-Jul-21 08:12N 29°46' W 095°06'0 0.0
2018-Jul-21 07:57N 29°46' W 095°06'0 0.0
2018-Jul-21 07:30N 29°46' W 095°06'0 0.0
2018-Jul-21 07:00N 29°46' W 095°06'0 0.0
2018-Jul-21 06:30N 29°46' W 095°06'0 0.2
2018-Jul-21 05:58N 29°46' W 095°06'1 0.6
2018-Jul-21 04:31N 29°45' W 095°06'0 4.5
2018-Jul-21 04:30N 29°45' W 095°06'1 0.8
2018-Jul-21 03:27N 29°46' W 095°06'3 0.8
2018-Jul-20 22:53N 29°45' W 095°10'5 0.9
2018-Jul-20 17:41N 29°46' W 095°05'2 4.1
2018-Jul-20 17:12N 29°44' W 095°03'2 4.4
2018-Jul-20 16:43N 29°43' W 095°01'1 4.4
2018-Jul-20 16:29N 29°42' W 095°01'2 4.0
2018-Jul-20 16:00N 29°41' W 094°59'2 4.3
2018-Jul-20 15:30N 29°39' W 094°58'2 4.5
2018-Jul-20 15:00N 29°37' W 094°57'2 4.1
2018-Jul-20 14:30N 29°37' W 094°60'1 3.0
2018-Jul-20 14:00N 29°37' W 095°01'0 0.1
2018-Jul-20 13:30N 29°37' W 095°01'0 0.0
2018-Jul-20 13:00N 29°37' W 095°01'0 0.0
2018-Jul-20 12:30N 29°37' W 095°01'0 0.0
2018-Jul-20 12:00N 29°37' W 095°01'0 0.0
2018-Jul-20 11:27N 29°37' W 095°01'0 0.0
2018-Jul-20 10:59N 29°37' W 095°01'0 0.0
2018-Jul-20 10:29N 29°37' W 095°01'0 0.0
2018-Jul-20 09:59N 29°37' W 095°01'0 0.0
2018-Jul-20 09:29N 29°37' W 095°01'0 0.0
2018-Jul-20 08:59N 29°37' W 095°01'0 0.0
2018-Jul-20 08:29N 29°37' W 095°01'0 0.0
2018-Jul-20 07:59N 29°37' W 095°01'0 0.0
2018-Jul-20 07:29N 29°37' W 095°01'0 0.0
2018-Jul-20 06:59N 29°37' W 095°01'0 0.0
2018-Jul-20 06:29N 29°37' W 095°01'0 0.0
2018-Jul-20 05:59N 29°37' W 095°01'0 0.0
2018-Jul-20 05:29N 29°37' W 095°01'0 0.0
2018-Jul-20 04:59N 29°37' W 095°01'0 0.0
2018-Jul-20 04:29N 29°37' W 095°01'0 0.0
2018-Jul-20 03:59N 29°37' W 095°01'0 0.0
2018-Jul-20 03:29N 29°37' W 095°01'0 0.0
2018-Jul-20 02:59N 29°37' W 095°01'0 0.0
2018-Jul-20 02:29N 29°37' W 095°01'0 0.0
2018-Jul-20 01:59N 29°37' W 095°01'0 0.0
2018-Jul-20 01:29N 29°37' W 095°01'0 0.0
2018-Jul-20 00:59N 29°37' W 095°01'0 0.0
2018-Jul-20 00:29N 29°37' W 095°01'0 0.0
2018-Jul-19 23:59N 29°37' W 095°01'1 1.4
2018-Jul-19 23:30N 29°37' W 095°01'2 3.9
2018-Jul-19 23:00N 29°37' W 094°58'2 3.7
2018-Jul-19 22:30N 29°39' W 094°58'10 0.9
2018-Jul-19 11:08N 29°46' W 095°06'1 4.3
2018-Jul-19 11:00N 29°46' W 095°05'0 0.6
2018-Jul-19 10:28N 29°46' W 095°05'0 0.0
2018-Jul-19 09:37N 29°46' W 095°05'0 0.0
2018-Jul-19 09:28N 29°46' W 095°05'0 0.0
2018-Jul-19 08:58N 29°46' W 095°05'0 0.0
2018-Jul-19 08:19N 29°46' W 095°05'0 0.0
2018-Jul-19 07:52N 29°46' W 095°05'0 0.0
2018-Jul-19 07:19N 29°46' W 095°05'0 0.0
2018-Jul-19 06:55N 29°46' W 095°05'0 0.0
2018-Jul-19 06:28N 29°46' W 095°05'0 0.0
2018-Jul-19 05:58N 29°46' W 095°05'0 0.0
2018-Jul-19 05:28N 29°46' W 095°05'0 0.0
2018-Jul-19 04:58N 29°46' W 095°05'0 0.0
2018-Jul-19 04:22N 29°46' W 095°05'0 0.0
2018-Jul-19 03:58N 29°46' W 095°05'0 0.0
2018-Jul-19 03:19N 29°46' W 095°05'1 1.0
2018-Jul-19 02:46N 29°46' W 095°06'1 1.6
2018-Jul-19 02:23N 29°45' W 095°06'0 0.1
2018-Jul-19 01:52N 29°46' W 095°06'3 0.3
2018-Jul-18 14:07N 29°44' W 095°09'3 1.1
2018-Jul-18 11:14N 29°46' W 095°06'0 0.1
2018-Jul-18 10:30N 29°46' W 095°06'2 3.4
2018-Jul-18 09:59N 29°45' W 095°04'2 4.0
2018-Jul-18 09:30N 29°44' W 095°02'2 3.5
2018-Jul-18 09:00N 29°43' W 095°01'2 3.9
2018-Jul-18 08:30N 29°42' W 094°59'2 4.2
2018-Jul-18 08:00N 29°40' W 094°58'2 4.7
2018-Jul-18 07:30N 29°37' W 094°57'2 4.4
2018-Jul-18 07:00N 29°37' W 094°60'1 2.6
2018-Jul-18 06:29N 29°37' W 095°01'0 0.0
2018-Jul-18 05:59N 29°37' W 095°01'0 0.0
2018-Jul-18 05:29N 29°37' W 095°01'0 0.0
2018-Jul-18 04:59N 29°37' W 095°01'0 0.1
2018-Jul-18 04:28N 29°37' W 095°01'0 0.0
2018-Jul-18 03:58N 29°37' W 095°01'0 0.0
2018-Jul-18 03:28N 29°37' W 095°01'0 0.0
2018-Jul-18 02:55N 29°37' W 095°01'0 0.0
2018-Jul-18 02:28N 29°37' W 095°01'0 0.0
2018-Jul-18 01:58N 29°37' W 095°01'0 0.0
2018-Jul-18 01:28N 29°37' W 095°01'0 0.0
2018-Jul-18 00:58N 29°37' W 095°01'0 0.0
2018-Jul-18 00:28N 29°37' W 095°01'0 0.0
2018-Jul-17 23:58N 29°37' W 095°01'0 0.0
2018-Jul-17 23:28N 29°37' W 095°01'0 0.0
2018-Jul-17 22:58N 29°37' W 095°01'0 0.0
2018-Jul-17 22:28N 29°37' W 095°01'0 0.0
2018-Jul-17 21:55N 29°37' W 095°01'0 0.0
2018-Jul-17 21:28N 29°37' W 095°01'0 0.0
2018-Jul-17 20:58N 29°37' W 095°01'0 0.0
2018-Jul-17 20:28N 29°37' W 095°01'0 0.0
2018-Jul-17 19:58N 29°37' W 095°01'0 0.0
2018-Jul-17 19:25N 29°37' W 095°01'0 0.0
2018-Jul-17 18:58N 29°37' W 095°01'0 0.0
2018-Jul-17 18:28N 29°37' W 095°01'0 0.0
2018-Jul-17 17:58N 29°37' W 095°01'0 0.0
2018-Jul-17 17:28N 29°37' W 095°01'0 0.0
2018-Jul-17 16:58N 29°37' W 095°01'0 0.0
2018-Jul-17 16:28N 29°37' W 095°01'0 0.0
2018-Jul-17 15:58N 29°37' W 095°01'0 0.0
2018-Jul-17 15:28N 29°37' W 095°01'0 0.0
2018-Jul-17 14:58N 29°37' W 095°01'0 0.1
2018-Jul-17 14:28N 29°37' W 095°01'0 0.3
2018-Jul-17 13:59N 29°37' W 095°01'0 0.4
2018-Jul-17 13:29N 29°37' W 095°01'0 0.0
2018-Jul-17 12:59N 29°37' W 095°01'0 0.0
2018-Jul-17 12:29N 29°37' W 095°01'2 3.9
2018-Jul-17 12:00N 29°37' W 094°59'2 4.4
2018-Jul-17 11:30N 29°39' W 094°58'4 7.6
2018-Jul-17 11:00N 29°42' W 095°00'3 6.9
2018-Jul-17 10:30N 29°44' W 095°03'3 3.0
2018-Jul-17 09:40N 29°46' W 095°06'0 0.0
2018-Jul-17 08:34N 29°46' W 095°06'0 0.0
2018-Jul-17 08:28N 29°46' W 095°06'0 0.0
2018-Jul-17 07:58N 29°46' W 095°06'0 0.0
2018-Jul-17 07:16N 29°46' W 095°06'0 0.0
2018-Jul-17 06:58N 29°46' W 095°06'0 0.0
2018-Jul-17 06:28N 29°46' W 095°06'0 0.8
2018-Jul-17 06:00N 29°46' W 095°06'0 0.7
2018-Jul-17 05:30N 29°46' W 095°07'1 2.2
2018-Jul-17 04:58N 29°46' W 095°06'0 0.2
2018-Jul-17 04:21N 29°46' W 095°05'2 4.7
2018-Jul-17 04:00N 29°45' W 095°04'2 4.7
2018-Jul-17 03:29N 29°44' W 095°01'1 0.0
2018-Jul-16 06:45N 29°44' W 095°03'1 4.5
2018-Jul-16 06:27N 29°45' W 095°04'2 0.8
2018-Jul-16 03:30N 29°46' W 095°06'1 0.2
2018-Jul-16 00:28N 29°46' W 095°05'3 6.2
2018-Jul-16 00:00N 29°44' W 095°03'3 0.2
2018-Jul-15 09:51N 29°45' W 095°06'2 1.4
2018-Jul-15 08:20N 29°44' W 095°03'2 5.2
2018-Jul-15 07:53N 29°43' W 095°01'2 4.7
2018-Jul-15 07:30N 29°42' W 094°60'2 3.7
2018-Jul-15 07:00N 29°40' W 094°59'3 5.6
2018-Jul-15 06:30N 29°38' W 094°58'2 4.9
2018-Jul-15 06:00N 29°37' W 095°00'1 2.1
2018-Jul-15 05:30N 29°37' W 095°01'0 0.0
2018-Jul-15 05:00N 29°37' W 095°01'0 0.0
2018-Jul-15 04:30N 29°37' W 095°01'0 0.0
2018-Jul-15 04:00N 29°37' W 095°01'0 0.0
2018-Jul-15 03:30N 29°37' W 095°01'0 0.0
2018-Jul-15 03:00N 29°37' W 095°01'0 0.0
2018-Jul-15 02:30N 29°37' W 095°01'0 0.0
2018-Jul-15 01:45N 29°37' W 095°01'0 0.0
2018-Jul-15 01:30N 29°37' W 095°01'0 0.0
2018-Jul-15 01:00N 29°37' W 095°01'0 0.0
2018-Jul-15 00:30N 29°37' W 095°01'0 0.0
2018-Jul-15 00:00N 29°37' W 095°01'0 0.0
2018-Jul-14 23:30N 29°37' W 095°01'0 0.0
2018-Jul-14 23:00N 29°37' W 095°01'0 0.0
2018-Jul-14 22:28N 29°37' W 095°01'0 0.0
2018-Jul-14 21:58N 29°37' W 095°01'0 0.0
2018-Jul-14 21:25N 29°37' W 095°01'0 0.0
2018-Jul-14 20:46N 29°37' W 095°01'0 0.0
2018-Jul-14 20:28N 29°37' W 095°01'0 0.0
2018-Jul-14 19:58N 29°37' W 095°01'0 0.0
2018-Jul-14 19:28N 29°37' W 095°01'0 0.0
2018-Jul-14 18:55N 29°37' W 095°01'0 0.0
2018-Jul-14 18:28N 29°37' W 095°01'0 0.0
2018-Jul-14 17:58N 29°37' W 095°01'0 0.0
2018-Jul-14 17:28N 29°37' W 095°01'0 0.0
2018-Jul-14 16:58N 29°37' W 095°01'1 2.6
2018-Jul-14 16:30N 29°37' W 095°00'3 4.3
2018-Jul-14 15:52N 29°39' W 094°58'3 6.6
2018-Jul-14 15:28N 29°41' W 094°59'  

Dump ship's entire track history